sensor_id;sensor_type;location;lat;lon;timestamp;P1;durP1;ratioP1;P2;durP2;ratioP2
27833;SDS011;15200;50.570;7.244;2022-09-13T00:03:38;6.92;;;3.33;;
27833;SDS011;15200;50.570;7.244;2022-09-13T00:06:09;3.90;;;3.50;;
27833;SDS011;15200;50.570;7.244;2022-09-13T00:08:36;7.42;;;3.37;;
27833;SDS011;15200;50.570;7.244;2022-09-13T00:11:04;4.35;;;3.67;;
27833;SDS011;15200;50.570;7.244;2022-09-13T00:13:31;4.70;;;3.80;;
27833;SDS011;15200;50.570;7.244;2022-09-13T00:15:58;3.33;;;3.02;;
27833;SDS011;15200;50.570;7.244;2022-09-13T00:18:27;7.37;;;3.60;;
27833;SDS011;15200;50.570;7.244;2022-09-13T00:21:10;7.50;;;4.30;;
27833;SDS011;15200;50.570;7.244;2022-09-13T00:23:32;5.30;;;3.70;;
27833;SDS011;15200;50.570;7.244;2022-09-13T00:26:03;7.10;;;3.90;;
27833;SDS011;15200;50.570;7.244;2022-09-13T00:28:31;5.70;;;4.05;;
27833;SDS011;15200;50.570;7.244;2022-09-13T00:31:04;11.60;;;4.62;;
27833;SDS011;15200;50.570;7.244;2022-09-13T00:33:27;5.78;;;4.67;;
27833;SDS011;15200;50.570;7.244;2022-09-13T00:35:54;6.37;;;4.62;;
27833;SDS011;15200;50.570;7.244;2022-09-13T00:38:22;6.17;;;4.35;;
27833;SDS011;15200;50.570;7.244;2022-09-13T00:40:49;6.83;;;3.87;;
27833;SDS011;15200;50.570;7.244;2022-09-13T00:43:19;4.83;;;3.80;;
27833;SDS011;15200;50.570;7.244;2022-09-13T00:45:47;4.95;;;4.08;;
27833;SDS011;15200;50.570;7.244;2022-09-13T00:48:22;4.90;;;4.30;;
27833;SDS011;15200;50.570;7.244;2022-09-13T00:50:48;6.35;;;3.98;;
27833;SDS011;15200;50.570;7.244;2022-09-13T00:53:16;5.53;;;4.20;;
27833;SDS011;15200;50.570;7.244;2022-09-13T00:55:57;6.17;;;4.00;;
27833;SDS011;15200;50.570;7.244;2022-09-13T00:58:35;4.92;;;4.35;;
27833;SDS011;15200;50.570;7.244;2022-09-13T01:01:02;6.28;;;4.55;;
27833;SDS011;15200;50.570;7.244;2022-09-13T01:03:32;5.05;;;4.00;;
27833;SDS011;15200;50.570;7.244;2022-09-13T01:06:04;5.22;;;3.92;;
27833;SDS011;15200;50.570;7.244;2022-09-13T01:08:28;5.78;;;4.17;;
27833;SDS011;15200;50.570;7.244;2022-09-13T01:10:58;4.95;;;4.25;;
27833;SDS011;15200;50.570;7.244;2022-09-13T01:13:28;5.15;;;3.83;;
27833;SDS011;15200;50.570;7.244;2022-09-13T01:15:57;7.22;;;4.58;;
27833;SDS011;15200;50.570;7.244;2022-09-13T01:18:24;3.80;;;3.40;;
27833;SDS011;15200;50.570;7.244;2022-09-13T01:21:02;6.25;;;4.30;;
27833;SDS011;15200;50.570;7.244;2022-09-13T01:26:55;4.78;;;4.10;;
27833;SDS011;15200;50.570;7.244;2022-09-13T01:31:22;4.45;;;3.90;;
27833;SDS011;15200;50.570;7.244;2022-09-13T01:34:15;7.85;;;4.47;;
27833;SDS011;15200;50.570;7.244;2022-09-13T01:39:14;5.20;;;3.67;;
27833;SDS011;15200;50.570;7.244;2022-09-13T01:44:21;7.17;;;4.00;;
27833;SDS011;15200;50.570;7.244;2022-09-13T01:47:18;6.67;;;3.92;;
27833;SDS011;15200;50.570;7.244;2022-09-13T01:55:06;4.05;;;3.33;;
27833;SDS011;15200;50.570;7.244;2022-09-13T01:57:43;7.42;;;4.10;;
27833;SDS011;15200;50.570;7.244;2022-09-13T02:00:12;4.60;;;3.80;;
27833;SDS011;15200;50.570;7.244;2022-09-13T02:02:41;6.67;;;4.00;;
27833;SDS011;15200;50.570;7.244;2022-09-13T02:05:55;5.12;;;3.95;;
27833;SDS011;15200;50.570;7.244;2022-09-13T02:07:39;7.65;;;3.95;;
27833;SDS011;15200;50.570;7.244;2022-09-13T02:10:12;4.10;;;3.70;;
27833;SDS011;15200;50.570;7.244;2022-09-13T02:12:35;4.85;;;3.98;;
27833;SDS011;15200;50.570;7.244;2022-09-13T02:15:10;5.00;;;3.83;;
27833;SDS011;15200;50.570;7.244;2022-09-13T02:17:40;6.45;;;3.58;;
27833;SDS011;15200;50.570;7.244;2022-09-13T02:20:09;7.25;;;3.95;;
27833;SDS011;15200;50.570;7.244;2022-09-13T02:22:38;4.67;;;3.72;;
27833;SDS011;15200;50.570;7.244;2022-09-13T02:25:07;5.42;;;3.62;;
27833;SDS011;15200;50.570;7.244;2022-09-13T02:27:34;5.65;;;3.92;;
27833;SDS011;15200;50.570;7.244;2022-09-13T02:30:07;4.47;;;3.98;;
27833;SDS011;15200;50.570;7.244;2022-09-13T02:32:37;9.18;;;4.15;;
27833;SDS011;15200;50.570;7.244;2022-09-13T02:35:22;5.87;;;3.85;;
27833;SDS011;15200;50.570;7.244;2022-09-13T02:38:00;4.53;;;4.00;;
27833;SDS011;15200;50.570;7.244;2022-09-13T02:40:20;4.90;;;4.00;;
27833;SDS011;15200;50.570;7.244;2022-09-13T02:42:52;5.17;;;3.90;;
27833;SDS011;15200;50.570;7.244;2022-09-13T02:45:19;6.62;;;3.50;;
27833;SDS011;15200;50.570;7.244;2022-09-13T02:47:59;5.80;;;3.98;;
27833;SDS011;15200;50.570;7.244;2022-09-13T02:55:41;6.15;;;3.90;;
27833;SDS011;15200;50.570;7.244;2022-09-13T03:00:45;4.40;;;4.00;;
27833;SDS011;15200;50.570;7.244;2022-09-13T03:03:13;5.60;;;4.00;;
27833;SDS011;15200;50.570;7.244;2022-09-13T03:05:42;4.62;;;3.92;;
27833;SDS011;15200;50.570;7.244;2022-09-13T03:08:10;4.12;;;3.50;;
27833;SDS011;15200;50.570;7.244;2022-09-13T03:10:42;5.53;;;3.95;;
27833;SDS011;15200;50.570;7.244;2022-09-13T03:15:57;7.47;;;3.85;;
27833;SDS011;15200;50.570;7.244;2022-09-13T03:24:07;5.05;;;3.65;;
27833;SDS011;15200;50.570;7.244;2022-09-13T03:26:55;11.78;;;3.92;;
27833;SDS011;15200;50.570;7.244;2022-09-13T03:29:25;4.00;;;3.60;;
27833;SDS011;15200;50.570;7.244;2022-09-13T03:32:03;5.65;;;3.75;;
27833;SDS011;15200;50.570;7.244;2022-09-13T03:34:47;5.42;;;3.55;;
27833;SDS011;15200;50.570;7.244;2022-09-13T03:39:44;4.85;;;3.45;;
27833;SDS011;15200;50.570;7.244;2022-09-13T03:42:15;3.90;;;3.50;;
27833;SDS011;15200;50.570;7.244;2022-09-13T03:44:42;4.50;;;3.70;;
27833;SDS011;15200;50.570;7.244;2022-09-13T03:47:11;7.75;;;4.25;;
27833;SDS011;15200;50.570;7.244;2022-09-13T03:49:38;6.28;;;4.05;;
27833;SDS011;15200;50.570;7.244;2022-09-13T03:52:06;5.00;;;3.87;;
27833;SDS011;15200;50.570;7.244;2022-09-13T03:54:35;6.80;;;4.22;;
27833;SDS011;15200;50.570;7.244;2022-09-13T03:57:09;6.47;;;4.33;;
27833;SDS011;15200;50.570;7.244;2022-09-13T03:59:38;8.85;;;4.03;;
27833;SDS011;15200;50.570;7.244;2022-09-13T04:02:06;6.33;;;4.35;;
27833;SDS011;15200;50.570;7.244;2022-09-13T04:04:37;7.60;;;4.05;;
27833;SDS011;15200;50.570;7.244;2022-09-13T04:07:05;8.08;;;4.25;;
27833;SDS011;15200;50.570;7.244;2022-09-13T04:09:32;6.55;;;4.17;;
27833;SDS011;15200;50.570;7.244;2022-09-13T04:11:59;10.72;;;4.92;;
27833;SDS011;15200;50.570;7.244;2022-09-13T04:14:27;9.08;;;4.62;;
27833;SDS011;15200;50.570;7.244;2022-09-13T04:16:54;6.85;;;4.47;;
27833;SDS011;15200;50.570;7.244;2022-09-13T04:19:22;7.90;;;4.60;;
27833;SDS011;15200;50.570;7.244;2022-09-13T04:21:50;7.17;;;4.35;;
27833;SDS011;15200;50.570;7.244;2022-09-13T04:24:18;8.73;;;4.70;;
27833;SDS011;15200;50.570;7.244;2022-09-13T04:26:49;6.25;;;4.45;;
27833;SDS011;15200;50.570;7.244;2022-09-13T04:29:16;6.85;;;4.28;;
27833;SDS011;15200;50.570;7.244;2022-09-13T04:31:44;7.05;;;4.33;;
27833;SDS011;15200;50.570;7.244;2022-09-13T04:34:12;6.53;;;4.28;;
27833;SDS011;15200;50.570;7.244;2022-09-13T04:36:39;6.50;;;4.30;;
27833;SDS011;15200;50.570;7.244;2022-09-13T04:39:07;6.25;;;3.92;;
27833;SDS011;15200;50.570;7.244;2022-09-13T04:41:34;5.62;;;3.75;;
27833;SDS011;15200;50.570;7.244;2022-09-13T04:44:01;5.42;;;4.05;;
27833;SDS011;15200;50.570;7.244;2022-09-13T04:46:29;9.10;;;4.17;;
27833;SDS011;15200;50.570;7.244;2022-09-13T04:48:56;7.65;;;4.20;;
27833;SDS011;15200;50.570;7.244;2022-09-13T04:51:23;7.62;;;4.62;;
27833;SDS011;15200;50.570;7.244;2022-09-13T04:53:51;6.95;;;4.08;;
27833;SDS011;15200;50.570;7.244;2022-09-13T04:56:20;6.00;;;4.47;;
27833;SDS011;15200;50.570;7.244;2022-09-13T04:58:52;5.05;;;4.53;;
27833;SDS011;15200;50.570;7.244;2022-09-13T05:01:20;7.72;;;4.50;;
27833;SDS011;15200;50.570;7.244;2022-09-13T05:03:47;6.17;;;5.12;;
27833;SDS011;15200;50.570;7.244;2022-09-13T05:06:16;6.10;;;4.50;;
27833;SDS011;15200;50.570;7.244;2022-09-13T05:08:44;7.33;;;4.78;;
27833;SDS011;15200;50.570;7.244;2022-09-13T05:11:12;5.75;;;4.25;;
27833;SDS011;15200;50.570;7.244;2022-09-13T05:13:40;12.78;;;4.90;;
27833;SDS011;15200;50.570;7.244;2022-09-13T05:16:07;5.60;;;4.53;;
27833;SDS011;15200;50.570;7.244;2022-09-13T05:18:35;6.28;;;4.33;;
27833;SDS011;15200;50.570;7.244;2022-09-13T05:21:03;6.78;;;4.22;;
27833;SDS011;15200;50.570;7.244;2022-09-13T05:23:31;8.10;;;4.22;;
27833;SDS011;15200;50.570;7.244;2022-09-13T05:25:59;5.70;;;4.53;;
27833;SDS011;15200;50.570;7.244;2022-09-13T05:28:27;4.85;;;3.98;;
27833;SDS011;15200;50.570;7.244;2022-09-13T05:30:56;7.97;;;4.10;;
27833;SDS011;15200;50.570;7.244;2022-09-13T05:33:23;5.10;;;3.87;;
27833;SDS011;15200;50.570;7.244;2022-09-13T05:35:51;6.92;;;4.05;;
27833;SDS011;15200;50.570;7.244;2022-09-13T05:38:18;6.87;;;4.75;;
27833;SDS011;15200;50.570;7.244;2022-09-13T05:40:46;6.12;;;3.90;;
27833;SDS011;15200;50.570;7.244;2022-09-13T05:43:13;7.50;;;4.55;;
27833;SDS011;15200;50.570;7.244;2022-09-13T05:45:41;4.75;;;3.67;;
27833;SDS011;15200;50.570;7.244;2022-09-13T05:48:08;6.65;;;3.62;;
27833;SDS011;15200;50.570;7.244;2022-09-13T05:50:36;3.95;;;3.55;;
27833;SDS011;15200;50.570;7.244;2022-09-13T05:53:03;4.70;;;3.67;;
27833;SDS011;15200;50.570;7.244;2022-09-13T05:55:31;7.05;;;4.00;;
27833;SDS011;15200;50.570;7.244;2022-09-13T05:58:04;6.70;;;4.25;;
27833;SDS011;15200;50.570;7.244;2022-09-13T06:00:28;4.65;;;3.87;;
27833;SDS011;15200;50.570;7.244;2022-09-13T06:02:57;5.37;;;4.08;;
27833;SDS011;15200;50.570;7.244;2022-09-13T06:05:24;11.12;;;4.00;;
27833;SDS011;15200;50.570;7.244;2022-09-13T06:07:51;8.33;;;4.00;;
27833;SDS011;15200;50.570;7.244;2022-09-13T06:10:18;10.18;;;4.30;;
27833;SDS011;15200;50.570;7.244;2022-09-13T06:12:46;4.72;;;4.15;;
27833;SDS011;15200;50.570;7.244;2022-09-13T06:15:15;6.00;;;4.15;;
27833;SDS011;15200;50.570;7.244;2022-09-13T06:17:42;7.12;;;3.70;;
27833;SDS011;15200;50.570;7.244;2022-09-13T06:20:09;6.42;;;3.95;;
27833;SDS011;15200;50.570;7.244;2022-09-13T06:22:37;8.08;;;3.92;;
27833;SDS011;15200;50.570;7.244;2022-09-13T06:25:04;6.85;;;4.17;;
27833;SDS011;15200;50.570;7.244;2022-09-13T06:27:31;6.10;;;4.40;;
27833;SDS011;15200;50.570;7.244;2022-09-13T06:29:59;5.75;;;4.75;;
27833;SDS011;15200;50.570;7.244;2022-09-13T06:32:26;12.80;;;4.05;;
27833;SDS011;15200;50.570;7.244;2022-09-13T06:34:53;5.35;;;4.47;;
27833;SDS011;15200;50.570;7.244;2022-09-13T06:37:21;9.43;;;3.87;;
27833;SDS011;15200;50.570;7.244;2022-09-13T06:39:48;5.30;;;3.70;;
27833;SDS011;15200;50.570;7.244;2022-09-13T06:42:15;8.30;;;4.03;;
27833;SDS011;15200;50.570;7.244;2022-09-13T06:44:43;7.97;;;3.60;;
27833;SDS011;15200;50.570;7.244;2022-09-13T06:47:13;5.55;;;4.30;;
27833;SDS011;15200;50.570;7.244;2022-09-13T06:49:41;8.28;;;3.75;;
27833;SDS011;15200;50.570;7.244;2022-09-13T06:52:08;3.87;;;3.35;;
27833;SDS011;15200;50.570;7.244;2022-09-13T06:54:35;4.47;;;3.92;;
27833;SDS011;15200;50.570;7.244;2022-09-13T06:57:03;6.87;;;3.33;;
27833;SDS011;15200;50.570;7.244;2022-09-13T06:59:30;6.72;;;3.33;;
27833;SDS011;15200;50.570;7.244;2022-09-13T07:01:59;5.65;;;3.50;;
27833;SDS011;15200;50.570;7.244;2022-09-13T07:04:26;7.67;;;3.75;;
27833;SDS011;15200;50.570;7.244;2022-09-13T07:06:55;7.28;;;3.00;;
27833;SDS011;15200;50.570;7.244;2022-09-13T07:09:23;7.12;;;3.02;;
27833;SDS011;15200;50.570;7.244;2022-09-13T07:11:52;5.62;;;3.55;;
27833;SDS011;15200;50.570;7.244;2022-09-13T07:14:20;4.55;;;3.27;;
27833;SDS011;15200;50.570;7.244;2022-09-13T07:16:48;5.03;;;2.95;;
27833;SDS011;15200;50.570;7.244;2022-09-13T07:19:18;6.05;;;3.15;;
27833;SDS011;15200;50.570;7.244;2022-09-13T07:21:45;4.62;;;3.37;;
27833;SDS011;15200;50.570;7.244;2022-09-13T07:24:19;4.62;;;3.08;;
27833;SDS011;15200;50.570;7.244;2022-09-13T07:26:43;10.25;;;3.58;;
27833;SDS011;15200;50.570;7.244;2022-09-13T07:29:12;7.70;;;3.17;;
27833;SDS011;15200;50.570;7.244;2022-09-13T07:31:45;4.70;;;2.90;;
27833;SDS011;15200;50.570;7.244;2022-09-13T07:34:16;6.83;;;3.12;;
27833;SDS011;15200;50.570;7.244;2022-09-13T07:36:44;5.53;;;3.30;;
27833;SDS011;15200;50.570;7.244;2022-09-13T07:39:12;9.45;;;3.27;;
27833;SDS011;15200;50.570;7.244;2022-09-13T07:41:40;4.80;;;3.83;;
27833;SDS011;15200;50.570;7.244;2022-09-13T07:44:10;5.17;;;2.98;;
27833;SDS011;15200;50.570;7.244;2022-09-13T07:46:38;2.95;;;2.72;;
27833;SDS011;15200;50.570;7.244;2022-09-13T07:49:07;5.90;;;3.65;;
27833;SDS011;15200;50.570;7.244;2022-09-13T07:51:35;3.98;;;2.85;;
27833;SDS011;15200;50.570;7.244;2022-09-13T07:54:04;3.47;;;2.80;;
27833;SDS011;15200;50.570;7.244;2022-09-13T07:56:38;8.50;;;3.00;;
27833;SDS011;15200;50.570;7.244;2022-09-13T07:59:01;4.58;;;3.35;;
27833;SDS011;15200;50.570;7.244;2022-09-13T08:01:33;6.90;;;3.42;;
27833;SDS011;15200;50.570;7.244;2022-09-13T08:03:59;6.70;;;2.77;;
27833;SDS011;15200;50.570;7.244;2022-09-13T08:06:28;6.28;;;3.17;;
27833;SDS011;15200;50.570;7.244;2022-09-13T08:08:55;6.45;;;3.20;;
27833;SDS011;15200;50.570;7.244;2022-09-13T08:11:28;9.23;;;2.85;;
27833;SDS011;15200;50.570;7.244;2022-09-13T08:13:52;4.08;;;2.67;;
27833;SDS011;15200;50.570;7.244;2022-09-13T08:16:20;3.55;;;2.60;;
27833;SDS011;15200;50.570;7.244;2022-09-13T08:18:49;5.30;;;2.80;;
27833;SDS011;15200;50.570;7.244;2022-09-13T08:21:16;5.67;;;3.10;;
27833;SDS011;15200;50.570;7.244;2022-09-13T08:23:44;6.42;;;3.05;;
27833;SDS011;15200;50.570;7.244;2022-09-13T08:26:11;7.22;;;3.02;;
27833;SDS011;15200;50.570;7.244;2022-09-13T08:28:39;4.80;;;3.33;;
27833;SDS011;15200;50.570;7.244;2022-09-13T08:31:10;5.80;;;3.02;;
27833;SDS011;15200;50.570;7.244;2022-09-13T08:33:38;5.83;;;3.30;;
27833;SDS011;15200;50.570;7.244;2022-09-13T08:36:06;9.43;;;3.27;;
27833;SDS011;15200;50.570;7.244;2022-09-13T08:38:33;6.10;;;2.90;;
27833;SDS011;15200;50.570;7.244;2022-09-13T08:41:01;4.97;;;2.47;;
27833;SDS011;15200;50.570;7.244;2022-09-13T08:43:33;6.95;;;2.52;;
27833;SDS011;15200;50.570;7.244;2022-09-13T08:48:45;9.23;;;3.00;;
27833;SDS011;15200;50.570;7.244;2022-09-13T08:51:30;6.03;;;2.77;;
27833;SDS011;15200;50.570;7.244;2022-09-13T08:53:43;4.17;;;2.67;;
27833;SDS011;15200;50.570;7.244;2022-09-13T08:56:12;4.67;;;2.70;;
27833;SDS011;15200;50.570;7.244;2022-09-13T09:03:58;5.62;;;3.12;;
27833;SDS011;15200;50.570;7.244;2022-09-13T09:06:25;3.37;;;2.50;;
27833;SDS011;15200;50.570;7.244;2022-09-13T09:08:57;5.70;;;2.58;;
27833;SDS011;15200;50.570;7.244;2022-09-13T09:14:00;5.12;;;3.00;;
27833;SDS011;15200;50.570;7.244;2022-09-13T09:16:36;5.83;;;3.00;;
27833;SDS011;15200;50.570;7.244;2022-09-13T09:19:08;7.17;;;3.10;;
27833;SDS011;15200;50.570;7.244;2022-09-13T09:21:33;5.35;;;2.75;;
27833;SDS011;15200;50.570;7.244;2022-09-13T09:24:00;5.08;;;2.62;;
27833;SDS011;15200;50.570;7.244;2022-09-13T09:26:29;5.97;;;2.55;;
27833;SDS011;15200;50.570;7.244;2022-09-13T09:29:39;3.90;;;2.40;;
27833;SDS011;15200;50.570;7.244;2022-09-13T09:31:38;4.30;;;2.55;;
27833;SDS011;15200;50.570;7.244;2022-09-13T09:34:16;4.45;;;2.45;;
27833;SDS011;15200;50.570;7.244;2022-09-13T09:36:48;7.33;;;2.08;;
27833;SDS011;15200;50.570;7.244;2022-09-13T09:39:13;4.97;;;2.25;;
27833;SDS011;15200;50.570;7.244;2022-09-13T09:41:42;4.28;;;2.10;;
27833;SDS011;15200;50.570;7.244;2022-09-13T09:44:16;6.20;;;2.77;;
27833;SDS011;15200;50.570;7.244;2022-09-13T09:46:45;5.62;;;2.30;;
27833;SDS011;15200;50.570;7.244;2022-09-13T09:49:16;4.55;;;2.25;;
27833;SDS011;15200;50.570;7.244;2022-09-13T09:52:02;4.78;;;2.22;;
27833;SDS011;15200;50.570;7.244;2022-09-13T09:54:32;4.12;;;2.30;;
27833;SDS011;15200;50.570;7.244;2022-09-13T09:57:00;5.28;;;2.42;;
27833;SDS011;15200;50.570;7.244;2022-09-13T09:59:28;8.73;;;2.25;;
27833;SDS011;15200;50.570;7.244;2022-09-13T10:01:56;5.50;;;2.85;;
27833;SDS011;15200;50.570;7.244;2022-09-13T10:04:24;2.85;;;2.52;;
27833;SDS011;15200;50.570;7.244;2022-09-13T10:07:06;5.08;;;1.98;;
27833;SDS011;15200;50.570;7.244;2022-09-13T10:09:20;3.65;;;2.10;;
27833;SDS011;15200;50.570;7.244;2022-09-13T10:14:28;7.87;;;2.27;;
27833;SDS011;15200;50.570;7.244;2022-09-13T10:19:37;6.72;;;2.12;;
27833;SDS011;15200;50.570;7.244;2022-09-13T10:22:05;3.77;;;1.82;;
27833;SDS011;15200;50.570;7.244;2022-09-13T10:24:33;4.30;;;2.37;;
27833;SDS011;15200;50.570;7.244;2022-09-13T10:27:00;3.75;;;2.70;;
27833;SDS011;15200;50.570;7.244;2022-09-13T10:29:29;5.78;;;2.10;;
27833;SDS011;15200;50.570;7.244;2022-09-13T10:31:58;9.80;;;2.42;;
27833;SDS011;15200;50.570;7.244;2022-09-13T10:34:30;7.15;;;2.37;;
27833;SDS011;15200;50.570;7.244;2022-09-13T10:39:27;5.47;;;2.30;;
27833;SDS011;15200;50.570;7.244;2022-09-13T10:42:04;4.72;;;2.10;;
27833;SDS011;15200;50.570;7.244;2022-09-13T10:44:38;6.40;;;2.25;;
27833;SDS011;15200;50.570;7.244;2022-09-13T10:47:02;6.28;;;2.00;;
27833;SDS011;15200;50.570;7.244;2022-09-13T10:54:50;4.37;;;1.80;;
27833;SDS011;15200;50.570;7.244;2022-09-13T10:59:59;3.55;;;1.70;;
27833;SDS011;15200;50.570;7.244;2022-09-13T11:02:36;3.80;;;2.10;;
27833;SDS011;15200;50.570;7.244;2022-09-13T11:07:39;6.33;;;1.80;;
27833;SDS011;15200;50.570;7.244;2022-09-13T11:13:13;4.00;;;1.52;;
27833;SDS011;15200;50.570;7.244;2022-09-13T11:15:50;1.77;;;1.47;;
27833;SDS011;15200;50.570;7.244;2022-09-13T11:18:19;3.37;;;1.35;;
27833;SDS011;15200;50.570;7.244;2022-09-13T11:26:08;1.85;;;1.17;;
27833;SDS011;15200;50.570;7.244;2022-09-13T11:33:54;2.80;;;1.17;;
27833;SDS011;15200;50.570;7.244;2022-09-13T11:36:33;2.72;;;0.95;;
27833;SDS011;15200;50.570;7.244;2022-09-13T11:39:00;6.35;;;0.90;;
27833;SDS011;15200;50.570;7.244;2022-09-13T11:41:32;1.47;;;1.02;;
27833;SDS011;15200;50.570;7.244;2022-09-13T11:46:32;2.80;;;1.05;;
27833;SDS011;15200;50.570;7.244;2022-09-13T11:51:35;2.47;;;1.32;;
27833;SDS011;15200;50.570;7.244;2022-09-13T11:54:14;1.50;;;1.20;;
27833;SDS011;15200;50.570;7.244;2022-09-13T11:56:45;2.90;;;1.17;;
27833;SDS011;15200;50.570;7.244;2022-09-13T11:59:25;1.92;;;1.20;;
27833;SDS011;15200;50.570;7.244;2022-09-13T12:01:54;2.80;;;1.00;;
27833;SDS011;15200;50.570;7.244;2022-09-13T12:04:20;3.70;;;1.12;;
27833;SDS011;15200;50.570;7.244;2022-09-13T12:06:49;4.70;;;1.12;;
27833;SDS011;15200;50.570;7.244;2022-09-13T12:12:08;3.05;;;1.17;;
27833;SDS011;15200;50.570;7.244;2022-09-13T12:14:14;3.42;;;1.10;;
27833;SDS011;15200;50.570;7.244;2022-09-13T12:16:48;4.55;;;1.45;;
27833;SDS011;15200;50.570;7.244;2022-09-13T12:19:24;1.60;;;1.15;;
27833;SDS011;15200;50.570;7.244;2022-09-13T12:21:52;9.68;;;1.57;;
27833;SDS011;15200;50.570;7.244;2022-09-13T12:24:37;4.17;;;1.50;;
27833;SDS011;15200;50.570;7.244;2022-09-13T12:29:46;2.15;;;1.20;;
27833;SDS011;15200;50.570;7.244;2022-09-13T12:32:14;1.75;;;1.12;;
27833;SDS011;15200;50.570;7.244;2022-09-13T12:45:24;2.05;;;1.12;;
27833;SDS011;15200;50.570;7.244;2022-09-13T12:47:58;2.95;;;0.98;;
27833;SDS011;15200;50.570;7.244;2022-09-13T12:50:34;7.80;;;1.52;;
27833;SDS011;15200;50.570;7.244;2022-09-13T12:53:13;2.90;;;1.35;;
27833;SDS011;15200;50.570;7.244;2022-09-13T13:03:28;11.93;;;1.72;;
27833;SDS011;15200;50.570;7.244;2022-09-13T13:06:07;3.67;;;1.20;;
27833;SDS011;15200;50.570;7.244;2022-09-13T13:08:35;6.20;;;1.30;;
27833;SDS011;15200;50.570;7.244;2022-09-13T13:18:49;6.15;;;1.47;;
27833;SDS011;15200;50.570;7.244;2022-09-13T13:21:28;6.00;;;1.27;;
27833;SDS011;15200;50.570;7.244;2022-09-13T13:26:47;3.90;;;1.20;;
27833;SDS011;15200;50.570;7.244;2022-09-13T13:29:16;4.72;;;1.10;;
27833;SDS011;15200;50.570;7.244;2022-09-13T13:31:45;3.27;;;1.00;;
27833;SDS011;15200;50.570;7.244;2022-09-13T13:36:42;2.85;;;1.22;;
27833;SDS011;15200;50.570;7.244;2022-09-13T13:41:54;7.50;;;1.22;;
27833;SDS011;15200;50.570;7.244;2022-09-13T13:59:48;9.03;;;2.20;;
27833;SDS011;15200;50.570;7.244;2022-09-13T14:02:17;8.60;;;1.60;;
27833;SDS011;15200;50.570;7.244;2022-09-13T14:04:59;8.45;;;1.70;;
27833;SDS011;15200;50.570;7.244;2022-09-13T14:07:37;7.28;;;1.95;;
27833;SDS011;15200;50.570;7.244;2022-09-13T14:10:06;9.95;;;1.87;;
27833;SDS011;15200;50.570;7.244;2022-09-13T14:12:40;8.08;;;1.80;;
27833;SDS011;15200;50.570;7.244;2022-09-13T14:15:24;3.27;;;1.70;;
27833;SDS011;15200;50.570;7.244;2022-09-13T14:20:36;3.98;;;1.75;;
27833;SDS011;15200;50.570;7.244;2022-09-13T14:23:10;10.40;;;2.10;;
27833;SDS011;15200;50.570;7.244;2022-09-13T14:25:37;6.75;;;1.47;;
27833;SDS011;15200;50.570;7.244;2022-09-13T14:28:05;6.87;;;1.50;;
27833;SDS011;15200;50.570;7.244;2022-09-13T14:30:37;8.68;;;1.55;;
27833;SDS011;15200;50.570;7.244;2022-09-13T14:33:02;5.87;;;1.57;;
27833;SDS011;15200;50.570;7.244;2022-09-13T14:35:32;4.33;;;1.50;;
27833;SDS011;15200;50.570;7.244;2022-09-13T14:38:11;3.62;;;1.20;;
27833;SDS011;15200;50.570;7.244;2022-09-13T14:40:38;4.95;;;1.42;;
27833;SDS011;15200;50.570;7.244;2022-09-13T14:43:22;12.80;;;1.82;;
27833;SDS011;15200;50.570;7.244;2022-09-13T14:45:51;6.30;;;1.40;;
27833;SDS011;15200;50.570;7.244;2022-09-13T14:48:22;6.60;;;1.32;;
27833;SDS011;15200;50.570;7.244;2022-09-13T14:50:55;4.12;;;1.50;;
27833;SDS011;15200;50.570;7.244;2022-09-13T14:53:20;5.92;;;1.40;;
27833;SDS011;15200;50.570;7.244;2022-09-13T14:55:54;2.08;;;1.30;;
27833;SDS011;15200;50.570;7.244;2022-09-13T14:58:21;9.00;;;1.40;;
27833;SDS011;15200;50.570;7.244;2022-09-13T15:00:51;3.15;;;1.30;;
27833;SDS011;15200;50.570;7.244;2022-09-13T15:03:15;2.80;;;1.17;;
27833;SDS011;15200;50.570;7.244;2022-09-13T15:05:49;5.10;;;1.50;;
27833;SDS011;15200;50.570;7.244;2022-09-13T15:10:55;4.78;;;1.10;;
27833;SDS011;15200;50.570;7.244;2022-09-13T15:13:22;5.92;;;1.42;;
27833;SDS011;15200;50.570;7.244;2022-09-13T15:15:50;6.17;;;1.25;;
27833;SDS011;15200;50.570;7.244;2022-09-13T15:20:53;3.98;;;1.07;;
27833;SDS011;15200;50.570;7.244;2022-09-13T15:23:38;2.70;;;1.17;;
27833;SDS011;15200;50.570;7.244;2022-09-13T15:26:05;5.37;;;1.45;;
27833;SDS011;15200;50.570;7.244;2022-09-13T15:28:50;4.80;;;0.93;;
27833;SDS011;15200;50.570;7.244;2022-09-13T15:31:02;3.20;;;1.20;;
27833;SDS011;15200;50.570;7.244;2022-09-13T15:33:30;3.33;;;1.35;;
27833;SDS011;15200;50.570;7.244;2022-09-13T15:38:59;4.10;;;0.90;;
27833;SDS011;15200;50.570;7.244;2022-09-13T15:41:26;3.58;;;1.20;;
27833;SDS011;15200;50.570;7.244;2022-09-13T15:43:52;4.05;;;1.20;;
27833;SDS011;15200;50.570;7.244;2022-09-13T15:46:19;4.47;;;1.15;;
27833;SDS011;15200;50.570;7.244;2022-09-13T15:48:51;2.77;;;0.90;;
27833;SDS011;15200;50.570;7.244;2022-09-13T15:51:18;1.90;;;1.00;;
27833;SDS011;15200;50.570;7.244;2022-09-13T15:53:46;1.75;;;1.05;;
27833;SDS011;15200;50.570;7.244;2022-09-13T15:56:20;3.40;;;1.30;;
27833;SDS011;15200;50.570;7.244;2022-09-13T15:58:47;3.00;;;1.10;;
27833;SDS011;15200;50.570;7.244;2022-09-13T16:01:15;5.60;;;1.10;;
27833;SDS011;15200;50.570;7.244;2022-09-13T16:03:43;4.10;;;0.90;;
27833;SDS011;15200;50.570;7.244;2022-09-13T16:06:10;2.50;;;1.00;;
27833;SDS011;15200;50.570;7.244;2022-09-13T16:08:38;3.70;;;1.10;;
27833;SDS011;15200;50.570;7.244;2022-09-13T16:11:05;2.90;;;1.20;;
27833;SDS011;15200;50.570;7.244;2022-09-13T16:13:33;2.22;;;0.90;;
27833;SDS011;15200;50.570;7.244;2022-09-13T16:16:02;2.00;;;1.30;;
27833;SDS011;15200;50.570;7.244;2022-09-13T16:18:30;1.20;;;0.90;;
27833;SDS011;15200;50.570;7.244;2022-09-13T16:20:58;1.35;;;1.25;;
27833;SDS011;15200;50.570;7.244;2022-09-13T16:23:25;1.90;;;1.40;;
27833;SDS011;15200;50.570;7.244;2022-09-13T16:25:53;6.58;;;1.35;;
27833;SDS011;15200;50.570;7.244;2022-09-13T16:28:21;1.67;;;1.27;;
27833;SDS011;15200;50.570;7.244;2022-09-13T16:30:48;2.70;;;1.50;;
27833;SDS011;15200;50.570;7.244;2022-09-13T16:33:16;7.25;;;1.90;;
27833;SDS011;15200;50.570;7.244;2022-09-13T16:35:43;3.10;;;1.40;;
27833;SDS011;15200;50.570;7.244;2022-09-13T16:38:10;3.12;;;1.47;;
27833;SDS011;15200;50.570;7.244;2022-09-13T16:40:38;3.85;;;1.32;;
27833;SDS011;15200;50.570;7.244;2022-09-13T16:43:06;2.00;;;1.20;;
27833;SDS011;15200;50.570;7.244;2022-09-13T16:45:36;3.00;;;1.20;;
27833;SDS011;15200;50.570;7.244;2022-09-13T16:48:03;1.40;;;1.30;;
27833;SDS011;15200;50.570;7.244;2022-09-13T16:50:31;3.52;;;1.70;;
27833;SDS011;15200;50.570;7.244;2022-09-13T16:52:58;2.83;;;1.60;;
27833;SDS011;15200;50.570;7.244;2022-09-13T16:55:26;5.62;;;1.62;;
27833;SDS011;15200;50.570;7.244;2022-09-13T16:57:53;3.83;;;1.77;;
27833;SDS011;15200;50.570;7.244;2022-09-13T17:00:21;3.47;;;1.57;;
27833;SDS011;15200;50.570;7.244;2022-09-13T17:02:50;5.75;;;1.80;;
27833;SDS011;15200;50.570;7.244;2022-09-13T17:05:17;3.58;;;1.75;;
27833;SDS011;15200;50.570;7.244;2022-09-13T17:07:44;4.37;;;1.72;;
27833;SDS011;15200;50.570;7.244;2022-09-13T17:10:12;1.95;;;1.70;;
27833;SDS011;15200;50.570;7.244;2022-09-13T17:12:39;5.55;;;1.42;;
27833;SDS011;15200;50.570;7.244;2022-09-13T17:15:07;5.55;;;1.65;;
27833;SDS011;15200;50.570;7.244;2022-09-13T17:17:34;3.30;;;1.82;;
27833;SDS011;15200;50.570;7.244;2022-09-13T17:20:06;3.75;;;1.65;;
27833;SDS011;15200;50.570;7.244;2022-09-13T17:22:35;4.92;;;2.17;;
27833;SDS011;15200;50.570;7.244;2022-09-13T17:25:03;5.40;;;2.20;;
27833;SDS011;15200;50.570;7.244;2022-09-13T17:27:32;4.95;;;2.62;;
27833;SDS011;15200;50.570;7.244;2022-09-13T17:29:59;3.80;;;2.30;;
27833;SDS011;15200;50.570;7.244;2022-09-13T17:32:27;4.55;;;2.20;;